Terminal Aerodrome Forecast
Issued by NWS Bismarck, ND

Home | Current Version | Previous Version | Graphics & Text | Print | Product List | Glossary On
Versions: 1 2 3 4 5 6 7 8 9 10 11 12 13 14 15 16 17
049
FTUS43 KBIS 262113 AAB
TAFISN
TAF AMD
KISN 262113Z 2621/2718 08011KT P6SM BKN011 OVC018
      TEMPO 2621/2624 5SM BR SCT015 OVC020
     FM270000 09008KT 4SM BR VCSH OVC010
     FM270500 06006KT 2SM -RA BR OVC006=

USA.gov is the U.S. government's official web portal to all federal, state and local government web resources and services.